Terminal Aerodrome Forecast
Issued by NWS Shreveport, LA

Home | Current Version | Previous Version | Text Only | Print | Product List | Glossary On
Versions: 1 2 3 4 5 6 7 8 9 10 11 12 13 14 15 16 17 18
000
FTUS44 KSHV 021700
TAFLFK
TAF
KLFK 021738Z 0218/0318 18006KT P6SM VCTS BKN035CB
      TEMPO 0218/0220 VRB15G25KT 3SM TSRA BKN025 OVC035CB
     FM030000 16007KT P6SM SCT060 BKN250
     FM030700 15004KT P6SM BKN012
      TEMPO 0310/0314 OVC007
     FM031500 18006KT P6SM BKN024
     FM031700 18008KT P6SM BKN035=

USA.gov is the U.S. government's official web portal to all federal, state and local government web resources and services.